createdAt,value
2019-02-16T00:00:30.925Z,41.50
2019-02-16T00:02:59.555Z,42.30
2019-02-16T00:05:28.134Z,35.50
2019-02-16T00:07:56.897Z,36.37
2019-02-16T00:10:25.471Z,34.57
2019-02-16T00:12:54.511Z,21.30
2019-02-16T00:15:23.981Z,15.17
2019-02-16T00:17:52.800Z,15.60
2019-02-16T00:20:21.363Z,17.37
2019-02-16T00:22:49.922Z,12.47
2019-02-16T00:25:18.602Z,15.13
2019-02-16T00:27:47.177Z,18.03
2019-02-16T00:30:16.319Z,15.13
2019-02-16T00:32:45.235Z,14.43
2019-02-16T00:35:13.907Z,14.80
2019-02-16T00:37:42.476Z,18.20
2019-02-16T00:40:17.387Z,18.17
2019-02-16T00:42:45.953Z,12.67
2019-02-16T00:45:14.972Z,20.63
2019-02-16T00:47:43.528Z,13.67
2019-02-16T00:50:12.171Z,10.97
2019-02-16T00:52:40.731Z,13.93
2019-02-16T00:55:09.507Z,12.70
2019-02-16T00:57:38.195Z,14.83
2019-02-16T01:00:27.623Z,17.07
2019-02-16T01:02:57.889Z,14.77
2019-02-16T01:05:26.445Z,16.50
2019-02-16T01:07:55.254Z,13.37
2019-02-16T01:10:23.895Z,14.37
2019-02-16T01:12:52.863Z,17.73
2019-02-16T01:15:21.729Z,17.23
2019-02-16T01:17:50.277Z,15.00
2019-02-16T01:20:19.091Z,17.80
2019-02-16T01:22:47.649Z,16.93
2019-02-16T01:25:16.674Z,13.77
2019-02-16T01:27:45.229Z,14.43
2019-02-16T01:30:14.103Z,17.57
2019-02-16T01:32:42.728Z,15.17
2019-02-16T01:35:11.570Z,16.57
2019-02-16T01:37:40.154Z,11.23
2019-02-16T01:40:10.252Z,15.00
2019-02-16T01:42:40.448Z,14.30
2019-02-16T01:45:09.436Z,15.70
2019-02-16T01:47:38.008Z,12.77
2019-02-16T01:50:07.872Z,16.27
2019-02-16T01:52:36.475Z,16.10
2019-02-16T01:55:07.690Z,11.13
2019-02-16T01:57:36.271Z,17.00
2019-02-16T02:00:06.708Z,15.47
2019-02-16T02:02:35.293Z,18.37
2019-02-16T02:05:05.018Z,15.57
2019-02-16T02:07:33.683Z,16.70
2019-02-16T02:10:02.676Z,16.77
2019-02-16T02:12:31.934Z,17.23
2019-02-16T02:15:00.669Z,14.50
2019-02-16T02:17:31.084Z,15.07
2019-02-16T02:19:59.612Z,15.67
2019-02-16T02:22:28.196Z,14.80
2019-02-16T02:24:57.042Z,14.67
2019-02-16T02:27:25.629Z,14.27
2019-02-16T02:29:54.284Z,13.10
2019-02-16T02:32:22.871Z,16.87
2019-02-16T02:34:51.540Z,14.70
2019-02-16T02:37:20.120Z,19.93
2019-02-16T02:39:49.346Z,13.80
2019-02-16T02:42:18.154Z,20.03
2019-02-16T02:44:46.804Z,12.97
2019-02-16T02:47:15.464Z,21.97
2019-02-16T02:49:44.165Z,15.17
2019-02-16T02:52:12.742Z,13.53
2019-02-16T02:54:41.684Z,13.17
2019-02-16T02:57:10.342Z,21.90
2019-02-16T02:59:39.006Z,9.87
2019-02-16T03:02:07.749Z,17.40
2019-02-16T03:04:36.331Z,13.93
2019-02-16T03:07:05.101Z,14.23
2019-02-16T03:09:33.993Z,18.57
2019-02-16T03:12:02.923Z,17.47
2019-02-16T03:14:31.778Z,19.17
2019-02-16T03:17:00.367Z,12.00
2019-02-16T03:19:29.162Z,15.30
2019-02-16T03:22:02.925Z,16.47
2019-02-16T03:24:28.154Z,17.40
2019-02-16T03:27:02.398Z,14.27
2019-02-16T03:29:34.562Z,17.40
2019-02-16T03:32:24.300Z,15.97
2019-02-16T03:35:02.144Z,14.53
2019-02-16T03:37:42.204Z,15.70
2019-02-16T03:40:12.814Z,16.80
2019-02-16T03:42:41.396Z,17.10
2019-02-16T03:45:10.479Z,12.17
2019-02-16T03:47:42.206Z,15.57
2019-02-16T03:50:10.950Z,13.70
2019-02-16T03:52:40.046Z,15.57
2019-02-16T03:55:08.864Z,14.20
2019-02-16T03:57:37.450Z,11.40
2019-02-16T04:00:12.233Z,14.70
2019-02-16T04:02:40.825Z,18.90
2019-02-16T04:05:09.601Z,13.03
2019-02-16T04:07:38.192Z,13.77
2019-02-16T04:10:07.300Z,16.23
2019-02-16T04:12:38.941Z,17.63
2019-02-16T04:15:09.290Z,19.00
2019-02-16T04:17:37.874Z,13.80
2019-02-16T04:20:07.561Z,13.73
2019-02-16T04:22:36.311Z,11.40
2019-02-16T04:25:05.348Z,10.70
2019-02-16T04:27:34.091Z,12.87
2019-02-16T04:30:02.641Z,13.47
2019-02-16T04:32:31.458Z,11.80
2019-02-16T04:35:00.009Z,16.03
2019-02-16T04:37:28.698Z,13.83
2019-02-16T04:39:57.257Z,10.07
2019-02-16T04:42:25.998Z,12.40
2019-02-16T04:44:54.578Z,14.10
2019-02-16T04:47:23.355Z,16.90
2019-02-16T04:49:51.947Z,12.53
2019-02-16T04:52:21.159Z,10.93
2019-02-16T04:54:49.716Z,15.90
2019-02-16T04:57:18.528Z,18.67
2019-02-16T04:59:47.079Z,11.00
2019-02-16T05:02:17.116Z,15.57
2019-02-16T05:04:48.860Z,14.00
2019-02-16T05:07:17.552Z,14.77
2019-02-16T05:09:46.119Z,12.30
2019-02-16T05:12:15.783Z,13.50
2019-02-16T05:14:44.312Z,19.30
2019-02-16T05:17:14.967Z,14.10
2019-02-16T05:19:43.525Z,16.33
2019-02-16T05:22:12.349Z,15.97
2019-02-16T05:24:40.910Z,11.30
2019-02-16T05:27:09.715Z,14.17
2019-02-16T05:29:38.422Z,17.77
2019-02-16T05:32:07.003Z,15.60
2019-02-16T05:34:35.985Z,21.00
2019-02-16T05:37:04.601Z,23.00
2019-02-16T05:39:33.356Z,20.80
2019-02-16T05:42:01.916Z,20.00
2019-02-16T05:44:30.726Z,27.47
2019-02-16T05:46:59.356Z,22.70
2019-02-16T05:49:27.922Z,19.20
2019-02-16T05:51:56.779Z,17.63
2019-02-16T05:54:25.340Z,14.03
2019-02-16T05:56:54.351Z,12.90
2019-02-16T05:59:22.914Z,15.70
2019-02-16T06:01:53.720Z,11.23
2019-02-16T06:04:21.817Z,17.93
2019-02-16T06:06:51.352Z,14.83
2019-02-16T06:09:22.950Z,16.40
2019-02-16T06:11:51.653Z,12.40
2019-02-16T06:14:20.260Z,12.63
2019-02-16T06:16:48.894Z,16.97
2019-02-16T06:19:17.511Z,15.27
2019-02-16T06:21:46.434Z,17.57
2019-02-16T06:24:14.993Z,26.30
2019-02-16T06:26:43.908Z,13.87
2019-02-16T06:29:12.474Z,17.47
2019-02-16T06:31:41.048Z,16.13
2019-02-16T06:34:09.760Z,13.10
2019-02-16T06:36:38.315Z,31.40
2019-02-16T06:39:07.325Z,14.50
2019-02-16T06:41:35.952Z,22.37
2019-02-16T06:44:04.714Z,19.00
2019-02-16T06:46:33.294Z,17.83
2019-02-16T06:49:02.084Z,15.80
2019-02-16T06:51:30.633Z,25.60
2019-02-16T06:54:00.683Z,18.53
2019-02-16T06:56:30.885Z,16.13
2019-02-16T06:58:59.688Z,24.10
2019-02-16T07:01:28.271Z,24.20
2019-02-16T07:03:57.060Z,18.73
2019-02-16T07:06:25.964Z,24.50
2019-02-16T07:08:54.830Z,22.90
2019-02-16T07:11:23.388Z,23.80
2019-02-16T07:13:52.222Z,23.97
2019-02-16T07:16:30.932Z,44.73
2019-02-16T07:19:03.920Z,33.93
2019-02-16T07:21:32.617Z,30.83
2019-02-16T07:24:01.179Z,24.03
2019-02-16T07:26:31.412Z,24.40
2019-02-16T07:28:59.962Z,20.80
2019-02-16T07:31:28.791Z,31.33
2019-02-16T07:33:57.348Z,31.60
2019-02-16T07:36:26.162Z,26.70
2019-02-16T07:38:57.802Z,25.77
2019-02-16T07:41:26.774Z,25.53
2019-02-16T07:43:56.974Z,41.87
2019-02-16T07:46:38.990Z,29.10
2019-02-16T07:49:09.192Z,32.27
2019-02-16T07:51:48.774Z,43.27
2019-02-16T07:54:25.098Z,31.70
2019-02-16T07:56:58.374Z,28.00
2019-02-16T07:59:41.050Z,34.93
2019-02-16T08:02:11.399Z,33.63
2019-02-16T08:04:50.658Z,35.03
2019-02-16T08:07:23.531Z,30.83
2019-02-16T08:09:53.796Z,34.40
2019-02-16T08:12:24.002Z,28.57
2019-02-16T08:15:00.398Z,30.47
2019-02-16T08:17:30.604Z,37.00
2019-02-16T08:20:06.595Z,28.17
2019-02-16T08:22:53.108Z,30.87
2019-02-16T08:25:29.152Z,35.37
2019-02-16T08:28:17.400Z,36.67
2019-02-16T08:31:05.432Z,31.90
2019-02-16T08:33:35.642Z,38.83
2019-02-16T08:36:06.015Z,29.10
2019-02-16T08:38:36.280Z,39.70
2019-02-16T08:41:06.734Z,35.60
2019-02-16T08:43:54.870Z,36.87
2019-02-16T08:46:37.285Z,37.03
2019-02-16T08:49:13.478Z,37.43
2019-02-16T08:51:49.624Z,37.80
2019-02-16T08:54:25.510Z,44.80
2019-02-16T08:56:56.127Z,41.90
2019-02-16T08:59:26.404Z,43.87
2019-02-16T09:01:59.493Z,49.83
2019-02-16T09:04:39.158Z,43.30
2019-02-16T09:07:21.441Z,47.10
2019-02-16T09:09:51.646Z,35.77
2019-02-16T09:12:27.728Z,55.80
2019-02-16T09:15:14.370Z,38.73
2019-02-16T09:17:53.282Z,36.40
2019-02-16T09:20:23.553Z,36.13
2019-02-16T09:22:59.540Z,47.73
2019-02-16T09:25:35.638Z,45.03
2019-02-16T09:28:19.132Z,37.57
2019-02-16T09:30:50.326Z,41.60
2019-02-16T09:33:23.198Z,42.27
2019-02-16T09:35:56.275Z,42.87
2019-02-16T09:38:26.573Z,41.73
2019-02-16T09:41:00.173Z,44.30
2019-02-16T09:43:30.371Z,39.73
2019-02-16T09:46:08.386Z,47.37
2019-02-16T09:48:50.788Z,44.10
2019-02-16T09:51:33.330Z,41.67
2019-02-16T09:54:08.399Z,44.57
2019-02-16T09:56:38.515Z,44.83
2019-02-16T09:59:23.778Z,48.00
2019-02-16T10:01:53.986Z,41.20
2019-02-16T10:04:27.146Z,49.97
2019-02-16T10:07:12.576Z,44.07
2019-02-16T10:09:42.868Z,51.30
2019-02-16T10:12:13.096Z,43.90
2019-02-16T10:14:59.915Z,42.83
2019-02-16T10:17:30.114Z,43.10
2019-02-16T10:20:06.194Z,50.53
2019-02-16T10:22:40.125Z,44.30
2019-02-16T10:25:10.808Z,45.40
2019-02-16T10:27:44.083Z,46.00
2019-02-16T10:30:17.704Z,52.53
2019-02-16T10:33:05.679Z,36.17
2019-02-16T10:35:44.508Z,40.53
2019-02-16T10:38:17.154Z,41.43
2019-02-16T10:41:01.481Z,37.43
2019-02-16T10:43:31.504Z,42.73
2019-02-16T10:46:07.572Z,39.67
2019-02-16T10:48:49.380Z,43.13
2019-02-16T10:51:37.705Z,40.70
2019-02-16T10:54:12.060Z,41.37
2019-02-16T10:56:42.489Z,34.97
2019-02-16T10:59:27.427Z,43.33
2019-02-16T11:02:14.627Z,44.50
2019-02-16T11:04:57.060Z,40.10
2019-02-16T11:07:30.213Z,42.33
2019-02-16T11:10:00.505Z,47.07
2019-02-16T11:12:31.774Z,53.73
2019-02-16T11:15:08.297Z,53.40
2019-02-16T11:17:55.793Z,56.77
2019-02-16T11:20:32.178Z,52.00
2019-02-16T11:23:02.392Z,47.20
2019-02-16T11:25:48.780Z,48.00
2019-02-16T11:28:19.193Z,43.93
2019-02-16T11:30:52.380Z,59.97
2019-02-16T11:33:34.464Z,42.67
2019-02-16T11:36:04.678Z,46.43
2019-02-16T11:38:35.370Z,43.80
2019-02-16T11:41:08.941Z,44.17
2019-02-16T11:43:49.452Z,40.53
2019-02-16T11:46:19.662Z,52.47
2019-02-16T11:48:54.065Z,52.90
2019-02-16T11:51:30.547Z,45.87
2019-02-16T11:54:17.206Z,46.57
2019-02-16T11:56:53.238Z,44.23
2019-02-16T11:59:29.477Z,44.17
2019-02-16T12:01:59.782Z,40.57
2019-02-16T12:04:36.227Z,40.90
2019-02-16T12:07:12.859Z,41.20
2019-02-16T12:09:48.985Z,44.40
2019-02-16T12:12:19.290Z,38.60
2019-02-16T12:15:01.503Z,44.40
2019-02-16T12:17:43.479Z,43.53
2019-02-16T12:20:19.276Z,41.00
2019-02-16T12:22:51.315Z,45.53
2019-02-16T12:25:21.574Z,39.93
2019-02-16T12:27:54.754Z,43.87
2019-02-16T12:30:41.107Z,43.97
2019-02-16T12:33:14.640Z,44.13
2019-02-16T12:35:44.849Z,44.20
2019-02-16T12:38:15.158Z,41.00
2019-02-16T12:41:01.571Z,43.63
2019-02-16T12:43:34.545Z,38.43
2019-02-16T12:46:19.993Z,36.73
2019-02-16T12:48:50.623Z,42.30
2019-02-16T12:51:23.523Z,35.47
2019-02-16T12:54:09.005Z,38.60
2019-02-16T12:56:39.514Z,33.67
2019-02-16T12:59:12.973Z,37.83
2019-02-16T13:01:59.479Z,34.83
2019-02-16T13:04:30.211Z,38.23
2019-02-16T13:07:12.380Z,34.00
2019-02-16T13:09:48.889Z,30.20
2019-02-16T13:12:24.987Z,38.30
2019-02-16T13:15:11.107Z,41.73
2019-02-16T13:17:47.659Z,47.17
2019-02-16T13:20:20.886Z,33.10
2019-02-16T13:22:54.052Z,33.60
2019-02-16T13:25:27.109Z,24.90
2019-02-16T13:27:59.857Z,32.57
2019-02-16T13:30:34.023Z,31.00
2019-02-16T13:33:11.180Z,28.20
2019-02-16T13:35:50.334Z,31.43
2019-02-16T13:38:32.553Z,27.17
2019-02-16T13:41:02.765Z,25.07
2019-02-16T13:43:51.288Z,24.57
2019-02-16T13:46:36.637Z,22.87
2019-02-16T13:49:09.384Z,22.50
2019-02-16T13:51:39.947Z,26.63
2019-02-16T13:54:13.312Z,26.37
2019-02-16T13:56:59.453Z,27.87
2019-02-16T13:59:29.654Z,28.33
2019-02-16T14:02:18.237Z,28.77
2019-02-16T14:04:51.153Z,25.93
2019-02-16T14:07:21.843Z,27.10
2019-02-16T14:09:54.921Z,30.47
2019-02-16T14:12:25.130Z,32.30
2019-02-16T14:15:11.322Z,34.37
2019-02-16T14:17:41.535Z,23.73
2019-02-16T14:20:10.250Z,22.37
2019-02-16T14:22:39.396Z,24.90
2019-02-16T14:25:09.692Z,21.37
2019-02-16T14:27:38.362Z,24.93
2019-02-16T14:30:09.998Z,22.10
2019-02-16T14:32:38.667Z,22.57
2019-02-16T14:35:08.678Z,18.83
2019-02-16T14:37:41.905Z,24.50
2019-02-16T14:40:19.394Z,26.13
2019-02-16T14:42:48.071Z,23.13
2019-02-16T14:45:16.649Z,25.30
2019-02-16T14:47:45.309Z,15.80
2019-02-16T14:50:13.871Z,15.30
2019-02-16T14:52:42.818Z,20.90
2019-02-16T14:55:14.439Z,16.13
2019-02-16T14:57:43.013Z,10.33
2019-02-16T15:00:13.014Z,11.50
2019-02-16T15:02:42.280Z,4.60
2019-02-16T15:05:11.164Z,6.17
2019-02-16T15:07:40.173Z,2.33
2019-02-16T15:10:11.738Z,4.10
2019-02-16T15:12:40.398Z,4.03
2019-02-16T15:15:10.410Z,4.50
2019-02-16T15:17:39.056Z,4.20
2019-02-16T15:20:10.825Z,2.07
2019-02-16T15:22:39.648Z,7.67
2019-02-16T15:25:10.869Z,6.90
2019-02-16T15:27:41.305Z,6.27
2019-02-16T15:30:18.637Z,3.17
2019-02-16T15:32:47.356Z,2.27
2019-02-16T15:35:15.920Z,6.87
2019-02-16T15:37:44.768Z,3.70
2019-02-16T15:40:13.394Z,5.33
2019-02-16T15:42:42.051Z,4.63
2019-02-16T15:45:13.067Z,7.10
2019-02-16T15:47:41.791Z,5.80
2019-02-16T15:50:12.478Z,5.73
2019-02-16T15:52:41.389Z,9.40
2019-02-16T15:55:11.516Z,11.23
2019-02-16T15:57:40.257Z,7.23
2019-02-16T16:00:13.460Z,6.47
2019-02-16T16:02:42.388Z,3.33
2019-02-16T16:05:14.112Z,5.30
2019-02-16T16:07:44.862Z,4.30
2019-02-16T16:10:31.684Z,13.10
2019-02-16T16:13:01.889Z,5.43
2019-02-16T16:15:48.675Z,29.07
2019-02-16T16:18:35.008Z,44.37
2019-02-16T16:21:18.731Z,44.97
2019-02-16T16:23:54.754Z,14.47
2019-02-16T16:26:41.250Z,13.83
2019-02-16T16:29:12.917Z,14.90
2019-02-16T16:31:52.032Z,15.47
2019-02-16T16:34:22.324Z,12.80
2019-02-16T16:36:58.482Z,10.83
2019-02-16T16:39:29.019Z,20.43
2019-02-16T16:42:15.471Z,31.20
2019-02-16T16:44:49.919Z,47.57
2019-02-16T16:47:26.112Z,22.20
2019-02-16T16:49:56.389Z,33.83
2019-02-16T16:52:29.024Z,50.93
2019-02-16T16:54:59.634Z,41.23
2019-02-16T16:57:38.814Z,23.10
2019-02-16T17:00:24.999Z,19.13
2019-02-16T17:03:07.547Z,16.53
2019-02-16T17:05:37.806Z,19.93
2019-02-16T17:08:10.714Z,44.03
2019-02-16T17:10:50.729Z,31.93
2019-02-16T17:13:20.930Z,33.03
2019-02-16T17:15:51.348Z,40.77
2019-02-16T17:18:30.397Z,40.20
2019-02-16T17:21:18.649Z,26.40
2019-02-16T17:23:49.042Z,28.73
2019-02-16T17:26:37.500Z,25.63
2019-02-16T17:29:06.381Z,21.30
2019-02-16T17:31:45.289Z,11.03
2019-02-16T17:34:18.538Z,9.97
2019-02-16T17:36:54.397Z,14.70
2019-02-16T17:39:31.069Z,31.23
2019-02-16T17:42:17.876Z,37.83
2019-02-16T17:44:53.943Z,31.40
2019-02-16T17:47:26.851Z,30.00
2019-02-16T17:50:00.334Z,16.90
2019-02-16T17:52:30.535Z,24.73
2019-02-16T17:55:12.815Z,16.20
2019-02-16T17:57:43.164Z,23.93
2019-02-16T18:00:29.505Z,20.20
2019-02-16T18:03:00.115Z,23.37
2019-02-16T18:05:42.552Z,26.33
2019-02-16T18:08:18.465Z,23.60
2019-02-16T18:11:05.268Z,22.60
2019-02-16T18:13:38.224Z,16.27
2019-02-16T18:16:08.534Z,20.53
2019-02-16T18:18:44.384Z,16.23
2019-02-16T18:21:14.715Z,23.10
2019-02-16T18:23:44.981Z,18.07
2019-02-16T18:26:15.488Z,25.60
2019-02-16T18:28:57.019Z,25.40
2019-02-16T18:31:29.352Z,28.73
2019-02-16T18:34:05.298Z,23.80
2019-02-16T18:36:35.583Z,28.50
2019-02-16T18:39:07.150Z,32.43
2019-02-16T18:41:52.897Z,30.83
2019-02-16T18:44:25.878Z,31.67
2019-02-16T18:46:56.208Z,27.80
2019-02-16T18:49:45.849Z,34.33
2019-02-16T18:52:25.092Z,38.00
2019-02-16T18:54:55.375Z,37.63
2019-02-16T18:57:40.495Z,42.93
2019-02-16T19:00:22.016Z,42.80
2019-02-16T19:02:52.525Z,50.93
2019-02-16T19:05:42.410Z,40.70
2019-02-16T19:08:18.437Z,40.00
2019-02-16T19:11:07.359Z,50.90
2019-02-16T19:13:37.069Z,55.33
2019-02-16T19:16:22.401Z,35.93
2019-02-16T19:19:01.636Z,39.30
2019-02-16T19:21:34.753Z,45.67
2019-02-16T19:24:14.163Z,42.40
2019-02-16T19:26:52.971Z,43.47
2019-02-16T19:29:32.411Z,42.83
2019-02-16T19:32:17.958Z,43.43
2019-02-16T19:34:59.905Z,40.73
2019-02-16T19:37:33.071Z,49.47
2019-02-16T19:40:03.375Z,42.83
2019-02-16T19:42:33.675Z,47.17
2019-02-16T19:45:06.933Z,46.77
2019-02-16T19:47:37.430Z,39.43
2019-02-16T19:50:16.149Z,58.47
2019-02-16T19:52:57.965Z,42.80
2019-02-16T19:55:37.791Z,43.10
2019-02-16T19:58:17.962Z,40.30
2019-02-16T20:00:48.240Z,49.60
2019-02-16T20:03:25.595Z,45.30
2019-02-16T20:05:56.260Z,58.83
2019-02-16T20:08:39.045Z,51.43
2019-02-16T20:11:18.189Z,72.30
2019-02-16T20:13:48.695Z,61.23
2019-02-16T20:16:28.032Z,50.73
2019-02-16T20:18:58.427Z,57.07
2019-02-16T20:21:29.226Z,58.80
2019-02-16T20:23:59.408Z,55.10
2019-02-16T20:26:45.929Z,57.90
2019-02-16T20:29:21.997Z,68.83
2019-02-16T20:32:01.278Z,51.00
2019-02-16T20:34:46.675Z,51.17
2019-02-16T20:37:17.263Z,54.13
2019-02-16T20:40:02.174Z,56.30
2019-02-16T20:42:32.723Z,68.97
2019-02-16T20:45:05.683Z,49.57
2019-02-16T20:47:37.873Z,53.57
2019-02-16T20:50:11.353Z,48.23
2019-02-16T20:53:01.053Z,55.10
2019-02-16T20:55:36.772Z,54.00
2019-02-16T20:58:12.917Z,47.23
2019-02-16T21:00:43.131Z,71.23
2019-02-16T21:03:25.683Z,70.47
2019-02-16T21:05:58.810Z,64.87
2019-02-16T21:08:29.009Z,78.73
2019-02-16T21:11:08.333Z,80.33
2019-02-16T21:13:38.657Z,57.90
2019-02-16T21:16:11.421Z,59.40
2019-02-16T21:18:58.208Z,48.70
2019-02-16T21:21:28.407Z,40.00
2019-02-16T21:23:58.711Z,43.23
2019-02-16T21:26:36.626Z,42.93
2019-02-16T21:29:04.157Z,48.20
2019-02-16T21:31:50.581Z,56.77
2019-02-16T21:34:26.934Z,54.77
2019-02-16T21:37:05.843Z,49.73
2019-02-16T21:39:48.257Z,41.00
2019-02-16T21:42:18.585Z,54.30
2019-02-16T21:44:48.805Z,44.00
2019-02-16T21:47:34.800Z,49.07
2019-02-16T21:50:05.070Z,56.10
2019-02-16T21:52:38.752Z,53.53
2019-02-16T21:55:17.650Z,46.57
2019-02-16T21:57:51.250Z,45.67
2019-02-16T22:00:21.458Z,51.47
2019-02-16T22:02:52.099Z,43.67
2019-02-16T22:05:22.721Z,52.17
2019-02-16T22:07:59.095Z,43.23
2019-02-16T22:10:35.253Z,52.70
2019-02-16T22:13:07.091Z,43.60
2019-02-16T22:15:35.667Z,44.97
2019-02-16T22:18:07.578Z,49.40
2019-02-16T22:20:36.185Z,41.57
2019-02-16T22:23:04.929Z,38.53
2019-02-16T22:25:33.502Z,42.13
2019-02-16T22:28:02.074Z,42.37
2019-02-16T22:30:30.789Z,50.60
2019-02-16T22:32:59.356Z,46.10
2019-02-16T22:35:28.557Z,44.03
2019-02-16T22:37:57.139Z,54.30
2019-02-16T22:40:25.835Z,42.70
2019-02-16T22:42:54.491Z,47.87
2019-02-16T22:45:23.319Z,55.07
2019-02-16T22:47:51.884Z,63.87
2019-02-16T22:50:21.090Z,59.03
2019-02-16T22:52:49.663Z,57.30
2019-02-16T22:55:18.461Z,58.17
2019-02-16T22:57:47.037Z,59.83
2019-02-16T23:00:22.005Z,50.87
2019-02-16T23:02:50.584Z,46.97
2019-02-16T23:05:21.279Z,46.90
2019-02-16T23:07:49.850Z,44.60
2019-02-16T23:10:18.783Z,65.17
2019-02-16T23:12:47.340Z,45.67
2019-02-16T23:15:16.109Z,40.53
2019-02-16T23:17:44.739Z,36.60
2019-02-16T23:20:15.702Z,43.17
2019-02-16T23:22:43.957Z,40.27
2019-02-16T23:25:12.740Z,39.03
2019-02-16T23:27:41.279Z,46.97
2019-02-16T23:30:12.043Z,39.60
2019-02-16T23:32:40.607Z,53.53
2019-02-16T23:35:10.151Z,36.00
2019-02-16T23:37:38.705Z,43.67
2019-02-16T23:40:08.608Z,59.20
2019-02-16T23:42:37.240Z,41.93
2019-02-16T23:45:08.619Z,34.23
2019-02-16T23:47:37.195Z,45.03
2019-02-16T23:50:11.059Z,33.63
2019-02-16T23:52:39.632Z,51.37
2019-02-16T23:55:10.887Z,42.90
2019-02-16T23:57:39.537Z,46.67
